createdAt,value
2018-02-05T00:00:16.344Z,33.10
2018-02-05T00:02:43.914Z,38.80
2018-02-05T00:05:11.465Z,35.57
2018-02-05T00:07:39.023Z,34.83
2018-02-05T00:10:06.585Z,36.63
2018-02-05T00:12:34.145Z,38.63
2018-02-05T00:15:01.731Z,37.33
2018-02-05T00:17:30.047Z,34.10
2018-02-05T00:19:57.602Z,39.40
2018-02-05T00:22:25.159Z,33.23
2018-02-05T00:24:52.729Z,36.33
2018-02-05T00:27:20.305Z,35.27
2018-02-05T00:29:47.856Z,36.10
2018-02-05T00:32:15.418Z,32.20
2018-02-05T00:34:42.963Z,34.80
2018-02-05T00:37:10.503Z,34.33
2018-02-05T00:39:38.102Z,32.92
2018-02-05T00:42:05.691Z,34.47
2018-02-05T00:44:33.223Z,37.10
2018-02-05T00:47:00.772Z,39.47
2018-02-05T00:49:28.315Z,36.60
2018-02-05T00:51:55.904Z,37.20
2018-02-05T00:54:23.453Z,35.90
2018-02-05T00:56:51.039Z,39.20
2018-02-05T00:59:18.582Z,36.60
2018-02-05T01:01:46.138Z,35.00
2018-02-05T01:04:13.707Z,37.60
2018-02-05T01:06:41.257Z,43.00
2018-02-05T01:09:08.854Z,40.43
2018-02-05T01:11:36.410Z,38.10
2018-02-05T01:14:03.956Z,37.40
2018-02-05T01:16:35.293Z,41.47
2018-02-05T01:19:02.839Z,39.93
2018-02-05T01:21:30.440Z,38.53
2018-02-05T01:23:58.762Z,38.87
2018-02-05T01:26:27.072Z,40.03
2018-02-05T01:28:54.628Z,39.40
2018-02-05T01:31:22.181Z,42.33
2018-02-05T01:33:49.722Z,43.57
2018-02-05T01:36:17.287Z,50.12
2018-02-05T01:38:44.859Z,50.37
2018-02-05T01:41:12.404Z,46.63
2018-02-05T01:43:39.976Z,47.20
2018-02-05T01:46:07.550Z,41.37
2018-02-05T01:48:35.105Z,45.23
2018-02-05T01:51:02.691Z,50.67
2018-02-05T01:53:30.247Z,50.00
2018-02-05T01:55:57.800Z,47.20
2018-02-05T01:58:25.352Z,44.40
2018-02-05T02:00:52.914Z,43.30
2018-02-05T02:03:20.500Z,46.13
2018-02-05T02:05:48.064Z,44.47
2018-02-05T02:08:15.615Z,44.90
2018-02-05T02:10:43.172Z,44.37
2018-02-05T02:13:10.723Z,46.23
2018-02-05T02:15:38.299Z,50.47
2018-02-05T02:18:05.860Z,46.10
2018-02-05T02:20:33.410Z,43.60
2018-02-05T02:23:00.971Z,50.47
2018-02-05T02:25:28.531Z,49.38
2018-02-05T02:27:56.109Z,50.00
2018-02-05T02:30:23.663Z,53.30
2018-02-05T02:32:51.227Z,49.80
2018-02-05T02:35:18.790Z,49.10
2018-02-05T02:37:46.342Z,55.97
2018-02-05T02:40:13.933Z,57.70
2018-02-05T02:42:42.264Z,58.38
2018-02-05T02:45:10.587Z,58.30
2018-02-05T02:47:38.932Z,59.08
2018-02-05T02:50:07.259Z,66.75
2018-02-05T02:52:34.835Z,55.53
2018-02-05T02:55:02.393Z,55.97
2018-02-05T02:57:29.950Z,54.80
2018-02-05T02:59:57.527Z,58.65
2018-02-05T03:02:25.083Z,59.92
2018-02-05T03:04:52.666Z,64.35
2018-02-05T03:07:20.230Z,54.83
2018-02-05T03:09:47.784Z,63.50
2018-02-05T03:12:16.112Z,59.05
2018-02-05T03:14:44.443Z,52.53
2018-02-05T03:17:12.035Z,56.97
2018-02-05T03:19:39.594Z,53.90
2018-02-05T03:22:07.151Z,53.67
2018-02-05T03:24:34.715Z,56.97
2018-02-05T03:27:02.272Z,51.55
2018-02-05T03:29:29.854Z,59.72
2018-02-05T03:31:57.417Z,48.63
2018-02-05T03:34:24.982Z,52.78
2018-02-05T03:36:52.548Z,58.70
2018-02-05T03:39:20.118Z,54.13
2018-02-05T03:41:47.708Z,51.40
2018-02-05T03:44:15.268Z,50.58
2018-02-05T03:46:42.828Z,49.28
2018-02-05T03:49:14.671Z,44.00
2018-02-05T03:51:42.333Z,45.72
2018-02-05T03:54:09.930Z,44.80
2018-02-05T03:56:37.490Z,40.40
2018-02-05T03:59:05.042Z,45.83
2018-02-05T04:01:32.614Z,44.90
2018-02-05T04:04:00.184Z,45.40
2018-02-05T04:06:28.550Z,44.13
2018-02-05T04:08:56.108Z,44.47
2018-02-05T04:11:23.667Z,43.90
2018-02-05T04:13:51.222Z,41.95
2018-02-05T04:16:18.771Z,41.50
2018-02-05T04:18:51.046Z,47.20
2018-02-05T04:21:18.608Z,41.63
2018-02-05T04:23:46.166Z,42.42
2018-02-05T04:26:13.735Z,38.78
2018-02-05T04:28:41.278Z,43.73
2018-02-05T04:31:09.635Z,43.17
2018-02-05T04:33:37.194Z,46.33
2018-02-05T04:36:04.746Z,44.45
2018-02-05T04:38:32.299Z,41.45
2018-02-05T04:40:59.846Z,43.73
2018-02-05T04:43:28.190Z,44.17
2018-02-05T04:45:55.739Z,48.53
2018-02-05T04:48:23.294Z,45.88
2018-02-05T04:50:50.852Z,49.00
2018-02-05T04:53:18.404Z,45.77
2018-02-05T04:55:46.000Z,43.28
2018-02-05T04:58:13.561Z,46.75
2018-02-05T05:00:41.120Z,42.78
2018-02-05T05:03:08.672Z,44.43
2018-02-05T05:05:36.233Z,42.70
2018-02-05T05:08:03.810Z,47.53
2018-02-05T05:10:31.374Z,41.75
2018-02-05T05:12:59.727Z,49.45
2018-02-05T05:15:27.315Z,43.17
2018-02-05T05:17:55.630Z,50.22
2018-02-05T05:20:23.221Z,48.00
2018-02-05T05:22:50.781Z,50.60
2018-02-05T05:25:18.331Z,48.38
2018-02-05T05:27:45.901Z,45.70
2018-02-05T05:30:13.463Z,46.90
2018-02-05T05:32:41.050Z,46.83
2018-02-05T05:35:09.382Z,52.88
2018-02-05T05:37:36.936Z,44.80
2018-02-05T05:40:04.498Z,49.58
2018-02-05T05:42:32.067Z,45.05
2018-02-05T05:44:59.650Z,52.78
2018-02-05T05:47:27.223Z,51.88
2018-02-05T05:49:55.560Z,53.00
2018-02-05T05:52:26.501Z,49.77
2018-02-05T05:54:54.057Z,44.70
2018-02-05T05:57:21.640Z,50.92
2018-02-05T05:59:52.580Z,41.63
2018-02-05T06:02:20.139Z,47.88
2018-02-05T06:04:47.702Z,44.47
2018-02-05T06:07:15.265Z,45.25
2018-02-05T06:09:42.851Z,40.83
2018-02-05T06:12:11.181Z,46.85
2018-02-05T06:14:38.737Z,46.40
2018-02-05T06:17:06.298Z,43.08
2018-02-05T06:19:33.851Z,45.85
2018-02-05T06:22:01.427Z,43.97
2018-02-05T06:24:28.984Z,43.20
2018-02-05T06:26:56.544Z,39.00
2018-02-05T06:29:24.106Z,45.67
2018-02-05T06:31:51.661Z,44.20
2018-02-05T06:34:19.258Z,46.37
2018-02-05T06:36:46.822Z,41.72
2018-02-05T06:39:14.388Z,37.83
2018-02-05T06:41:41.951Z,41.70
2018-02-05T06:44:10.277Z,42.60
2018-02-05T06:46:37.872Z,46.08
2018-02-05T06:49:05.442Z,40.15
2018-02-05T06:51:44.723Z,44.42
2018-02-05T06:54:24.022Z,44.15
2018-02-05T06:56:51.608Z,43.70
2018-02-05T06:59:19.183Z,38.25
2018-02-05T07:01:46.743Z,43.97
2018-02-05T07:04:14.300Z,41.70
2018-02-05T07:06:41.869Z,47.20
2018-02-05T07:09:09.495Z,45.03
2018-02-05T07:11:37.830Z,42.22
2018-02-05T07:14:05.385Z,51.67
2018-02-05T07:16:32.939Z,42.13
2018-02-05T07:19:00.514Z,47.47
2018-02-05T07:21:28.094Z,41.90
2018-02-05T07:23:55.658Z,47.38
2018-02-05T07:26:23.226Z,43.67
2018-02-05T07:28:51.551Z,39.33
2018-02-05T07:31:19.117Z,44.63
2018-02-05T07:33:46.751Z,39.78
2018-02-05T07:36:15.054Z,40.30
2018-02-05T07:38:42.618Z,44.90
2018-02-05T07:41:10.179Z,41.55
2018-02-05T07:43:37.735Z,46.67
2018-02-05T07:46:05.323Z,44.45
2018-02-05T07:48:32.883Z,44.35
2018-02-05T07:51:00.442Z,49.15
2018-02-05T07:53:27.998Z,42.92
2018-02-05T07:55:55.562Z,38.38
2018-02-05T07:58:23.206Z,42.15
2018-02-05T08:00:50.764Z,45.70
2018-02-05T08:06:12.617Z,41.45
2018-02-05T08:08:40.247Z,43.75
2018-02-05T08:11:07.812Z,38.50
2018-02-05T08:13:35.364Z,47.10
2018-02-05T08:16:02.928Z,40.58
2018-02-05T08:18:30.483Z,45.83
2018-02-05T08:20:58.063Z,39.15
2018-02-05T08:23:25.676Z,42.37
2018-02-05T08:25:54.004Z,41.63
2018-02-05T08:28:21.562Z,39.77
2018-02-05T08:30:49.128Z,41.00
2018-02-05T08:33:16.710Z,40.87
2018-02-05T08:35:44.258Z,41.23
2018-02-05T08:38:11.829Z,41.80
2018-02-05T08:40:39.397Z,40.75
2018-02-05T08:43:06.966Z,42.55
2018-02-05T08:45:34.556Z,36.92
2018-02-05T08:48:02.132Z,39.95
2018-02-05T08:50:29.691Z,38.80
2018-02-05T08:52:57.258Z,37.20
2018-02-05T08:55:24.823Z,37.88
2018-02-05T08:57:52.406Z,39.33
2018-02-05T09:00:19.996Z,35.28
2018-02-05T09:02:47.585Z,37.67
2018-02-05T09:05:15.899Z,38.43
2018-02-05T09:07:43.457Z,35.90
2018-02-05T09:10:11.056Z,36.58
2018-02-05T09:12:38.624Z,39.85
2018-02-05T09:15:07.054Z,34.45
2018-02-05T09:17:34.607Z,37.70
2018-02-05T09:20:02.158Z,33.50
2018-02-05T09:22:29.750Z,32.67
2018-02-05T09:24:57.308Z,38.00
2018-02-05T09:27:24.859Z,31.63
2018-02-05T09:29:52.419Z,33.17
2018-02-05T09:32:19.977Z,35.67
2018-02-05T09:34:47.563Z,32.43
2018-02-05T09:37:15.127Z,35.97
2018-02-05T09:39:42.680Z,34.67
2018-02-05T09:42:10.247Z,35.90
2018-02-05T09:44:37.851Z,33.33
2018-02-05T09:47:05.460Z,32.57
2018-02-05T09:49:33.014Z,30.83
2018-02-05T09:52:00.583Z,30.80
2018-02-05T09:54:28.147Z,34.47
2018-02-05T09:56:55.704Z,30.03
2018-02-05T09:59:23.286Z,30.43
2018-02-05T10:01:50.839Z,28.97
2018-02-05T10:04:18.390Z,27.67
2018-02-05T10:06:46.039Z,32.70
2018-02-05T10:09:13.657Z,31.33
2018-02-05T10:11:41.984Z,26.53
2018-02-05T10:14:09.538Z,30.00
2018-02-05T10:16:37.106Z,28.48
2018-02-05T10:19:04.659Z,31.37
2018-02-05T10:21:32.211Z,30.03
2018-02-05T10:23:59.791Z,32.33
2018-02-05T10:26:27.353Z,27.10
2018-02-05T10:28:54.903Z,25.10
2018-02-05T10:31:22.459Z,31.70
2018-02-05T10:33:50.020Z,27.43
2018-02-05T10:36:17.686Z,24.07
2018-02-05T10:38:45.246Z,24.77
2018-02-05T10:41:12.858Z,24.83
2018-02-05T10:43:41.182Z,24.73
2018-02-05T10:46:12.029Z,28.67
2018-02-05T10:48:39.611Z,25.20
2018-02-05T10:51:07.187Z,28.33
2018-02-05T10:53:35.504Z,21.73
2018-02-05T10:56:03.064Z,22.20
2018-02-05T10:58:30.646Z,22.70
2018-02-05T11:00:58.207Z,22.80
2018-02-05T11:03:25.748Z,22.27
2018-02-05T11:05:53.355Z,23.43
2018-02-05T11:08:21.700Z,23.67
2018-02-05T11:10:49.308Z,24.23
2018-02-05T11:13:16.872Z,24.60
2018-02-05T11:15:45.184Z,22.00
2018-02-05T11:18:12.752Z,24.93
2018-02-05T11:20:40.322Z,19.20
2018-02-05T11:23:07.878Z,20.40
2018-02-05T11:25:35.462Z,20.03
2018-02-05T11:28:03.016Z,20.00
2018-02-05T11:30:30.567Z,21.63
2018-02-05T11:32:58.151Z,20.30
2018-02-05T11:35:25.702Z,22.07
2018-02-05T11:37:53.255Z,21.30
2018-02-05T11:40:20.840Z,19.40
2018-02-05T11:42:49.285Z,18.80
2018-02-05T11:45:16.855Z,20.77
2018-02-05T11:47:44.426Z,21.50
2018-02-05T11:50:12.008Z,21.03
2018-02-05T11:52:40.324Z,19.70
2018-02-05T11:55:07.930Z,19.10
2018-02-05T11:57:35.498Z,17.03
2018-02-05T12:00:03.890Z,18.00
2018-02-05T12:02:32.239Z,19.90
2018-02-05T12:04:59.792Z,20.30
2018-02-05T12:07:27.354Z,18.73
2018-02-05T12:09:54.955Z,19.57
2018-02-05T12:12:22.545Z,17.60
2018-02-05T12:14:50.131Z,18.17
2018-02-05T12:17:17.715Z,17.60
2018-02-05T12:19:45.268Z,15.17
2018-02-05T12:22:12.856Z,18.33
2018-02-05T12:24:41.196Z,20.23
2018-02-05T12:27:08.752Z,19.70
2018-02-05T12:29:36.314Z,17.67
2018-02-05T12:32:04.664Z,15.87
2018-02-05T12:34:32.228Z,15.60
2018-02-05T12:36:59.787Z,17.00
2018-02-05T12:39:27.367Z,14.93
2018-02-05T12:41:54.924Z,14.50
2018-02-05T12:44:22.475Z,16.50
2018-02-05T12:46:50.076Z,17.87
2018-02-05T12:49:17.618Z,18.50
2018-02-05T12:51:45.175Z,17.17
2018-02-05T12:54:12.756Z,15.60
2018-02-05T12:56:40.310Z,15.57
2018-02-05T12:59:07.892Z,15.60
2018-02-05T13:01:37.049Z,15.77
2018-02-05T13:04:19.549Z,15.63
2018-02-05T13:06:49.076Z,15.53
2018-02-05T13:09:16.622Z,14.83
2018-02-05T13:11:44.187Z,17.63
2018-02-05T13:14:11.739Z,16.27
2018-02-05T13:16:39.291Z,17.53
2018-02-05T13:19:06.851Z,17.40
2018-02-05T13:21:34.426Z,17.07
2018-02-05T13:24:01.990Z,15.03
2018-02-05T13:26:29.544Z,13.33
2018-02-05T13:28:57.086Z,16.80
2018-02-05T13:31:24.642Z,15.87
2018-02-05T13:33:52.218Z,16.03
2018-02-05T13:36:25.024Z,17.30
2018-02-05T13:38:52.607Z,15.23
2018-02-05T13:41:20.151Z,17.27
2018-02-05T13:43:47.701Z,21.23
2018-02-05T13:46:15.250Z,14.83
2018-02-05T13:48:42.796Z,14.13
2018-02-05T13:51:10.384Z,16.40
2018-02-05T13:53:37.954Z,17.03
2018-02-05T13:56:05.500Z,16.83
2018-02-05T13:58:33.052Z,15.00
2018-02-05T14:01:00.651Z,13.30
2018-02-05T14:03:29.059Z,12.97
2018-02-05T14:05:56.611Z,16.20
2018-02-05T14:08:24.161Z,13.33
2018-02-05T14:10:51.712Z,14.70
2018-02-05T14:13:19.270Z,14.83
2018-02-05T14:15:47.608Z,16.17
2018-02-05T14:18:15.162Z,15.40
2018-02-05T14:20:42.726Z,13.30
2018-02-05T14:23:10.284Z,14.13
2018-02-05T14:25:37.835Z,14.67
2018-02-05T14:28:05.388Z,16.00
2018-02-05T14:30:32.953Z,24.80
2018-02-05T14:33:00.532Z,13.00
2018-02-05T14:35:28.095Z,13.03
2018-02-05T14:37:55.650Z,31.83
2018-02-05T14:40:23.207Z,34.50
2018-02-05T14:42:51.530Z,17.70
2018-02-05T14:45:19.878Z,24.20
2018-02-05T14:47:49.467Z,16.40
2018-02-05T14:50:17.016Z,32.87
2018-02-05T14:52:44.558Z,16.23
2018-02-05T14:55:12.106Z,18.10
2018-02-05T14:57:39.733Z,18.53
2018-02-05T15:00:07.283Z,23.63
2018-02-05T15:02:34.828Z,14.23
2018-02-05T15:05:02.373Z,14.27
2018-02-05T15:07:29.928Z,16.83
2018-02-05T15:09:57.504Z,21.50
2018-02-05T15:12:25.052Z,17.00
2018-02-05T15:14:52.603Z,35.80
2018-02-05T15:17:20.150Z,24.90
2018-02-05T15:19:47.700Z,23.17
2018-02-05T15:22:16.032Z,14.23
2018-02-05T15:24:44.166Z,37.50
2018-02-05T15:27:11.729Z,27.37
2018-02-05T15:29:39.287Z,17.90
2018-02-05T15:32:06.904Z,12.80
2018-02-05T15:34:35.275Z,13.97
2018-02-05T15:37:02.838Z,25.73
2018-02-05T15:39:30.399Z,20.03
2018-02-05T15:42:04.763Z,14.03
2018-02-05T15:44:32.335Z,13.40
2018-02-05T15:46:59.878Z,14.90
2018-02-05T15:49:39.726Z,31.20
2018-02-05T15:52:08.072Z,21.27
2018-02-05T15:54:35.631Z,35.80
2018-02-05T15:57:04.027Z,25.63
2018-02-05T15:59:32.347Z,26.20
2018-02-05T16:01:59.903Z,31.60
2018-02-05T16:04:27.491Z,27.53
2018-02-05T16:06:55.036Z,34.93
2018-02-05T16:09:22.597Z,62.17
2018-02-05T16:11:50.154Z,17.90
2018-02-05T16:14:17.975Z,38.30
2018-02-05T16:16:47.363Z,27.13
2018-02-05T16:19:15.783Z,26.03
2018-02-05T16:21:43.441Z,18.97
2018-02-05T16:24:22.650Z,38.57
2018-02-05T16:26:50.981Z,63.80
2018-02-05T16:29:18.655Z,23.90
2018-02-05T16:31:46.339Z,26.00
2018-02-05T16:34:13.932Z,26.77
2018-02-05T16:36:43.615Z,24.33
2018-02-05T16:39:11.207Z,34.77
2018-02-05T16:41:38.975Z,25.00
2018-02-05T16:44:06.548Z,22.00
2018-02-05T16:46:34.105Z,19.47
2018-02-05T16:49:01.667Z,24.37
2018-02-05T16:51:29.219Z,16.73
2018-02-05T16:53:56.802Z,20.40
2018-02-05T16:56:24.356Z,20.90
2018-02-05T16:58:51.966Z,23.97
2018-02-05T17:01:20.431Z,24.40
2018-02-05T17:03:48.018Z,24.30
2018-02-05T17:06:15.657Z,21.73
2018-02-05T17:08:43.226Z,56.93
2018-02-05T17:11:10.794Z,19.30
2018-02-05T17:13:38.339Z,18.80
2018-02-05T17:16:05.890Z,18.00
2018-02-05T17:18:33.465Z,19.10
2018-02-05T17:21:01.023Z,21.83
2018-02-05T17:23:34.250Z,19.57
2018-02-05T17:26:02.571Z,18.20
2018-02-05T17:28:30.146Z,17.93
2018-02-05T17:30:57.703Z,20.30
2018-02-05T17:33:25.258Z,18.00
2018-02-05T17:35:52.845Z,16.80
2018-02-05T17:38:20.403Z,27.93
2018-02-05T17:40:47.954Z,23.90
2018-02-05T17:43:16.339Z,25.13
2018-02-05T17:45:43.895Z,24.03
2018-02-05T17:48:11.471Z,32.17
2018-02-05T17:50:40.559Z,22.40
2018-02-05T17:53:08.139Z,23.53
2018-02-05T17:55:36.460Z,41.30
2018-02-05T17:58:04.011Z,31.93
2018-02-05T18:00:31.595Z,35.20
2018-02-05T18:02:59.144Z,46.67
2018-02-05T18:05:26.697Z,65.07
2018-02-05T18:07:55.293Z,33.00
2018-02-05T18:10:22.851Z,37.17
2018-02-05T18:12:50.434Z,28.13
2018-02-05T18:15:17.992Z,22.67
2018-02-05T18:17:45.571Z,27.03
2018-02-05T18:20:13.137Z,46.30
2018-02-05T18:22:40.687Z,65.33
2018-02-05T18:25:08.276Z,23.33
2018-02-05T18:27:35.835Z,43.77
2018-02-05T18:30:04.152Z,30.43
2018-02-05T18:32:32.487Z,28.50
2018-02-05T18:35:00.812Z,37.03
2018-02-05T18:37:28.383Z,131.30
2018-02-05T18:39:55.964Z,27.90
2018-02-05T18:42:24.308Z,22.85
2018-02-05T18:44:51.867Z,23.57
2018-02-05T18:47:22.930Z,23.30
2018-02-05T18:49:50.548Z,20.07
2018-02-05T18:52:18.948Z,23.58
2018-02-05T18:54:46.536Z,25.25
2018-02-05T18:57:16.123Z,23.58
2018-02-05T18:59:43.675Z,24.20
2018-02-05T19:02:21.023Z,22.40
2018-02-05T19:07:43.924Z,20.47
2018-02-05T19:10:11.481Z,20.77
2018-02-05T19:12:39.104Z,18.60
2018-02-05T19:15:06.659Z,20.77
2018-02-05T19:17:34.250Z,19.50
2018-02-05T19:23:10.574Z,20.03
2018-02-05T19:25:38.112Z,22.97
2018-02-05T19:28:05.667Z,22.30
2018-02-05T19:30:33.236Z,21.60
2018-02-05T19:33:00.804Z,24.37
2018-02-05T19:38:24.143Z,34.28
2018-02-05T19:40:52.470Z,45.67
2018-02-05T19:43:38.019Z,75.47
2018-02-05T19:46:05.636Z,41.30
2018-02-05T19:48:33.231Z,50.83
2018-02-05T19:51:00.876Z,43.20
2018-02-05T19:53:28.465Z,27.70
2018-02-05T19:55:56.095Z,41.95
2018-02-05T19:58:23.694Z,31.00
2018-02-05T20:00:51.266Z,55.22
2018-02-05T20:03:19.325Z,31.80
2018-02-05T20:05:46.890Z,23.42
2018-02-05T20:08:14.526Z,29.40
2018-02-05T20:10:43.722Z,24.13
2018-02-05T20:13:12.119Z,51.83
2018-02-05T20:15:39.712Z,41.63
2018-02-05T20:18:07.343Z,38.70
2018-02-05T20:20:34.974Z,29.77
2018-02-05T20:23:02.622Z,28.00
2018-02-05T20:25:30.212Z,30.73
2018-02-05T20:27:58.591Z,22.48
2018-02-05T20:30:27.022Z,31.07
2018-02-05T20:32:54.646Z,40.90
2018-02-05T20:35:22.211Z,29.40
2018-02-05T20:37:50.541Z,27.48
2018-02-05T20:40:18.125Z,42.97
2018-02-05T20:42:45.715Z,33.57
2018-02-05T20:45:13.336Z,28.67
2018-02-05T20:47:40.914Z,31.63
2018-02-05T20:50:09.250Z,32.33
2018-02-05T20:52:36.811Z,33.17
2018-02-05T20:55:04.370Z,25.83
2018-02-05T21:00:36.333Z,23.40
2018-02-05T21:03:03.918Z,40.73
2018-02-05T21:05:37.219Z,31.73
2018-02-05T21:08:23.370Z,45.77
2018-02-05T21:10:50.927Z,33.60
2018-02-05T21:13:18.499Z,47.78
2018-02-05T21:15:46.085Z,29.63
2018-02-05T21:18:13.650Z,28.95
2018-02-05T21:20:41.894Z,29.10
2018-02-05T21:23:09.450Z,26.58
2018-02-05T21:25:37.043Z,32.28
2018-02-05T21:28:04.607Z,26.00
2018-02-05T21:30:32.212Z,26.00
2018-02-05T21:33:00.547Z,24.67
2018-02-05T21:35:28.147Z,39.75
2018-02-05T21:37:55.731Z,25.67
2018-02-05T21:40:23.291Z,30.02
2018-02-05T21:42:50.864Z,23.67
2018-02-05T21:45:18.870Z,26.33
2018-02-05T21:47:46.436Z,27.52
2018-02-05T21:50:14.024Z,29.15
2018-02-05T21:52:41.630Z,25.00
2018-02-05T21:55:09.238Z,25.40
2018-02-05T21:57:36.819Z,27.40
2018-02-05T22:00:04.421Z,24.77
2018-02-05T22:02:31.976Z,21.33
2018-02-05T22:04:59.538Z,29.27
2018-02-05T22:07:27.127Z,26.75
2018-02-05T22:09:54.683Z,24.25
2018-02-05T22:12:22.250Z,30.50
2018-02-05T22:14:49.819Z,26.33
2018-02-05T22:17:17.379Z,37.63
2018-02-05T22:19:44.972Z,25.85
2018-02-05T22:22:12.543Z,26.25
2018-02-05T22:24:40.102Z,26.77
2018-02-05T22:27:07.687Z,27.80
2018-02-05T22:29:35.240Z,25.88
2018-02-05T22:32:02.835Z,28.15
2018-02-05T22:34:30.394Z,36.20
2018-02-05T22:36:57.954Z,28.60
2018-02-05T22:39:25.508Z,21.65
2018-02-05T22:41:56.008Z,36.63
2018-02-05T22:44:23.600Z,55.30
2018-02-05T22:46:51.159Z,37.13
2018-02-05T22:49:18.723Z,34.25
2018-02-05T22:51:46.283Z,33.33
2018-02-05T22:54:13.850Z,30.85
2018-02-05T22:56:41.439Z,41.00
2018-02-05T22:59:09.001Z,29.58
2018-02-05T23:01:36.567Z,27.95
2018-02-05T23:04:04.130Z,29.70
2018-02-05T23:06:31.698Z,28.48
2018-02-05T23:08:59.280Z,27.60
2018-02-05T23:11:26.854Z,24.45
2018-02-05T23:13:54.414Z,28.70
2018-02-05T23:16:22.746Z,27.42
2018-02-05T23:18:50.304Z,26.33
2018-02-05T23:21:17.896Z,25.65
2018-02-05T23:23:45.459Z,28.05
2018-02-05T23:26:13.966Z,28.23
2018-02-05T23:28:41.533Z,26.98
2018-02-05T23:31:09.103Z,33.20
2018-02-05T23:33:36.690Z,27.25
2018-02-05T23:36:04.282Z,27.42
2018-02-05T23:38:31.838Z,30.35
2018-02-05T23:40:59.410Z,28.35
2018-02-05T23:43:26.979Z,25.23
2018-02-05T23:45:54.543Z,29.30
2018-02-05T23:48:22.119Z,23.50
2018-02-05T23:50:49.666Z,28.10
2018-02-05T23:53:17.228Z,28.10
2018-02-05T23:55:44.784Z,26.62
2018-02-05T23:58:12.351Z,28.80
